Time;durP1;ratioP1;P1;durP2;ratioP2;P2;SDS_P1;SDS_P2;PMS_P1;PMS_P2;Temp;Humidity;BMP_temperature;BMP_pressure;BME280_temperature;BME280_humidity;BME280_pressure;Samples;Min_cycle;Max_cycle;Signal;HPM_P1;HPM_P2
2023/02/05 00:00:54;;;;;;;;;;;;;;;;;;5037307;28;20075;-83
2023/02/05 00:03:20;;;;;;;;;;;;;;;;;;5054036;28;19920;-82
2023/02/05 00:05:46;;;;;;;;;;;;;;;;;;5057708;28;19913;-83
2023/02/05 00:08:12;;;;;;;;;;;;;;;;;;5056473;28;19909;-83
2023/02/05 00:10:38;;;;;;;;;;;;;;;;;;5056371;28;20382;-81
2023/02/05 00:13:04;;;;;;;;;;;;;;;;;;5055107;28;19909;-82
2023/02/05 00:15:30;;;;;;;;;;;;;;;;;;5057371;28;19952;-83
2023/02/05 00:17:56;;;;;;;;;;;;;;;;;;5057719;28;19912;-82
2023/02/05 00:20:21;;;;;;;;;;;;;;;;;;5057284;28;19920;-83
2023/02/05 00:22:47;;;;;;;;;;;;;;;;;;5051159;28;19941;-80
2023/02/05 00:25:13;;;;;;;;;;;;;;;;;;5054290;28;19909;-79
2023/02/05 00:27:39;;;;;;;;;;;;;;;;;;5052829;28;19913;-83
2023/02/05 00:30:05;;;;;;;;;;;;;;;;;;5037499;28;19909;-82
2023/02/05 00:32:31;;;;;;;;;;;;;;;;;;5042099;28;19916;-81
2023/02/05 00:34:57;;;;;;;;;;;;;;;;;;5041267;28;20434;-83
2023/02/05 00:37:23;;;;;;;;;;;;;;;;;;5059741;28;19909;-81
2023/02/05 00:39:48;;;;;;;;;;;;;;;;;;5040009;28;19908;-81
2023/02/05 00:42:14;;;;;;;;;;;;;;;;;;5039517;28;22197;-82
2023/02/05 00:44:40;;;;;;;;;;;;;;;;;;5057054;28;19909;-83
2023/02/05 00:47:06;;;;;;;;;;;;;;;;;;5038443;28;19909;-82
2023/02/05 00:49:32;;;;;;;;;;;;;;;;;;5038893;28;19909;-82
2023/02/05 00:51:58;;;;;;;;;;;;;;;;;;5039497;28;19916;-82
2023/02/05 00:54:24;;;;;;;;;;;;;;;;;;5039428;28;19909;-82
2023/02/05 00:56:50;;;;;;;;;;;;;;;;;;5037658;28;19916;-83
2023/02/05 00:59:16;;;;;;;;;;;;;;;;;;5038759;28;19909;-84
2023/02/05 01:01:42;;;;;;;;;;;;;;;;;;5039735;28;19916;-83
2023/02/05 01:04:08;;;;;;;;;;;;;;;;;;5038960;28;19913;-84
2023/02/05 01:06:33;;;;;;;;;;;;;;;;;;5037732;28;19909;-82
2023/02/05 01:08:59;;;;;;;;;;;;;;;;;;5037690;28;19909;-84
2023/02/05 01:11:25;;;;;;;;;;;;;;;;;;5056168;28;19920;-82
2023/02/05 01:13:51;;;;;;;;;;;;;;;;;;5038524;28;19920;-83
2023/02/05 01:16:17;;;;;;;;;;;;;;;;;;5038073;28;19924;-82
2023/02/05 01:18:43;;;;;;;;;;;;;;;;;;5059716;28;19913;-83
2023/02/05 01:21:09;;;;;;;;;;;;;;;;;;5054647;28;19913;-81
2023/02/05 01:23:35;;;;;;;;;;;;;;;;;;5040091;28;19913;-84
2023/02/05 01:26:01;;;;;;;;;;;;;;;;;;5040028;28;19909;-83
2023/02/05 01:28:26;;;;;;;;;;;;;;;;;;5038591;28;20278;-82
2023/02/05 01:30:52;;;;;;;;;;;;;;;;;;5041414;28;19917;-82
2023/02/05 01:33:18;;;;;;;;;;;;;;;;;;5059981;28;19912;-83
2023/02/05 01:35:44;;;;;;;;;;;;;;;;;;5041994;28;19916;-82
2023/02/05 01:38:10;;;;;;;;;;;;;;;;;;5042043;28;19975;-82
2023/02/05 01:40:36;;;;;;;;;;;;;;;;;;5041412;28;20328;-83
2023/02/05 01:43:02;;;;;;;;;;;;;;;;;;5041207;28;19994;-82
2023/02/05 01:45:29;;;;;;;;;;;;;;;;;;5041733;28;19935;-82
2023/02/05 01:47:54;;;;;;;;;;;;;;;;;;5041979;28;20007;-83
2023/02/05 01:50:20;;;;;;;;;;;;;;;;;;5041313;28;19959;-83
2023/02/05 01:52:46;;;;;;;;;;;;;;;;;;5040979;28;20277;-82
2023/02/05 01:55:12;;;;;;;;;;;;;;;;;;5041593;28;19913;-83
2023/02/05 01:57:38;;;;;;;;;;;;;;;;;;5038416;28;19917;-83
2023/02/05 02:00:04;;;;;;;;;;;;;;;;;;5039128;28;19947;-83
2023/02/05 02:02:30;;;;;;;;;;;;;;;;;;5050109;28;19919;-83
2023/02/05 02:04:56;;;;;;;;;;;;;;;;;;5057821;28;20006;-82
2023/02/05 02:07:21;;;;;;;;;;;;;;;;;;5058584;28;19912;-83
2023/02/05 02:09:47;;;;;;;;;;;;;;;;;;5056156;28;20355;-82
2023/02/05 02:12:13;;;;;;;;;;;;;;;;;;5041118;28;19919;-83
2023/02/05 02:14:39;;;;;;;;;;;;;;;;;;5040388;28;19920;-83
2023/02/05 02:17:05;;;;;;;;;;;;;;;;;;5040358;28;19912;-83
2023/02/05 02:19:31;;;;;;;;;;;;;;;;;;5058182;28;19909;-83
2023/02/05 02:21:57;;;;;;;;;;;;;;;;;;5040869;28;19908;-82
2023/02/05 02:24:23;;;;;;;;;;;;;;;;;;5058348;28;19931;-82
2023/02/05 02:26:49;;;;;;;;;;;;;;;;;;5058253;28;20332;-83
2023/02/05 02:29:17;;;;;;;;;;;;;;;;;;5058595;28;19909;-83
2023/02/05 02:31:42;;;;;;;;;;;;;;;;;;5043023;28;19920;-82
2023/02/05 02:34:08;;;;;;;;;;;;;;;;;;5042213;28;19917;-81
2023/02/05 02:36:34;;;;;;;;;;;;;;;;;;5058604;28;20371;-83
2023/02/05 02:39:00;;;;;;;;;;;;;;;;;;5056368;28;19966;-82
2023/02/05 02:41:26;;;;;;;;;;;;;;;;;;5058466;28;19913;-82
2023/02/05 02:43:52;;;;;;;;;;;;;;;;;;5058003;28;19932;-81
2023/02/05 02:46:18;;;;;;;;;;;;;;;;;;5038966;28;20378;-82
2023/02/05 02:48:44;;;;;;;;;;;;;;;;;;5039957;28;19909;-82
2023/02/05 02:51:10;;;;;;;;;;;;;;;;;;5039643;28;19913;-83
2023/02/05 02:53:36;;;;;;;;;;;;;;;;;;5039010;28;19908;-83
2023/02/05 02:56:02;;;;;;;;;;;;;;;;;;5039577;28;19913;-82
2023/02/05 02:58:27;;;;;;;;;;;;;;;;;;5040368;28;19909;-83
2023/02/05 03:00:53;;;;;;;;;;;;;;;;;;5039475;28;19909;-82
2023/02/05 03:03:19;;;;;;;;;;;;;;;;;;5039607;28;20259;-82
2023/02/05 03:05:45;;;;;;;;;;;;;;;;;;5054886;28;19917;-82
2023/02/05 03:08:11;;;;;;;;;;;;;;;;;;5035350;28;20292;-82
2023/02/05 03:10:39;;;;;;;;;;;;;;;;;;5035817;28;19977;-82
2023/02/05 03:13:05;;;;;;;;;;;;;;;;;;5035232;28;19970;-81
2023/02/05 03:15:31;;;;;;;;;;;;;;;;;;5037225;28;20016;-81
2023/02/05 03:17:57;;;;;;;;;;;;;;;;;;5056068;28;19923;-81
2023/02/05 03:20:23;;;;;;;;;;;;;;;;;;5057630;28;20003;-81
2023/02/05 03:22:49;;;;;;;;;;;;;;;;;;5039214;28;20012;-82
2023/02/05 03:25:15;;;;;;;;;;;;;;;;;;5039490;28;19962;-81
2023/02/05 03:27:41;;;;;;;;;;;;;;;;;;5038685;28;19978;-82
2023/02/05 03:30:06;;;;;;;;;;;;;;;;;;5057362;28;19912;-82
2023/02/05 03:32:32;;;;;;;;;;;;;;;;;;5038636;28;19948;-81
2023/02/05 03:34:58;;;;;;;;;;;;;;;;;;5039118;28;20386;-81
2023/02/05 03:37:24;;;;;;;;;;;;;;;;;;5039073;28;19909;-82
2023/02/05 03:39:50;;;;;;;;;;;;;;;;;;5037001;28;19909;-81
2023/02/05 03:42:16;;;;;;;;;;;;;;;;;;5056158;28;19913;-81
2023/02/05 03:44:42;;;;;;;;;;;;;;;;;;5038343;28;20416;-82
2023/02/05 03:47:08;;;;;;;;;;;;;;;;;;5039168;28;19981;-80
2023/02/05 03:49:34;;;;;;;;;;;;;;;;;;5038885;28;19960;-82
2023/02/05 03:51:59;;;;;;;;;;;;;;;;;;5038531;28;19912;-81
2023/02/05 03:54:25;;;;;;;;;;;;;;;;;;5038793;28;19935;-82
2023/02/05 03:56:51;;;;;;;;;;;;;;;;;;5055558;28;19955;-82
2023/02/05 03:59:17;;;;;;;;;;;;;;;;;;5056382;28;20385;-81
2023/02/05 04:01:43;;;;;;;;;;;;;;;;;;5056433;28;19913;-82
2023/02/05 04:04:09;;;;;;;;;;;;;;;;;;5044307;28;20259;-79
2023/02/05 04:06:35;;;;;;;;;;;;;;;;;;5071879;28;19919;-79
2023/02/05 04:09:01;;;;;;;;;;;;;;;;;;5048519;28;19916;-81
2023/02/05 04:11:27;;;;;;;;;;;;;;;;;;5055155;28;19913;-82
2023/02/05 04:13:52;;;;;;;;;;;;;;;;;;5056416;28;19920;-82
2023/02/05 04:16:18;;;;;;;;;;;;;;;;;;5054999;28;19929;-81
2023/02/05 04:18:44;;;;;;;;;;;;;;;;;;5056688;28;19909;-82
2023/02/05 04:21:10;;;;;;;;;;;;;;;;;;5056297;28;19909;-82
2023/02/05 04:23:36;;;;;;;;;;;;;;;;;;5055938;28;20039;-82
2023/02/05 04:26:02;;;;;;;;;;;;;;;;;;5038006;28;19913;-82
2023/02/05 04:28:28;;;;;;;;;;;;;;;;;;5037977;28;19913;-82
2023/02/05 04:30:54;;;;;;;;;;;;;;;;;;5055929;28;20359;-82
2023/02/05 04:33:20;;;;;;;;;;;;;;;;;;5056592;28;19915;-82
2023/02/05 04:35:45;;;;;;;;;;;;;;;;;;5039504;28;19908;-80
2023/02/05 04:38:11;;;;;;;;;;;;;;;;;;5041206;28;19917;-81
2023/02/05 04:40:37;;;;;;;;;;;;;;;;;;5038807;28;19956;-82
2023/02/05 04:43:03;;;;;;;;;;;;;;;;;;5037390;28;19909;-80
2023/02/05 04:45:29;;;;;;;;;;;;;;;;;;5037400;28;19956;-82
2023/02/05 04:47:55;;;;;;;;;;;;;;;;;;5037339;28;19920;-82
2023/02/05 04:50:21;;;;;;;;;;;;;;;;;;5055597;28;19909;-82
2023/02/05 04:52:47;;;;;;;;;;;;;;;;;;5055786;28;19917;-82
2023/02/05 04:55:13;;;;;;;;;;;;;;;;;;5055083;28;20022;-83
2023/02/05 04:57:39;;;;;;;;;;;;;;;;;;5037297;28;19948;-82
2023/02/05 05:00:05;;;;;;;;;;;;;;;;;;5055400;28;19917;-82
2023/02/05 05:02:31;;;;;;;;;;;;;;;;;;5055133;28;19912;-82
2023/02/05 05:04:57;;;;;;;;;;;;;;;;;;5055835;28;19909;-80
2023/02/05 05:07:23;;;;;;;;;;;;;;;;;;5037777;28;19909;-82
2023/02/05 05:09:49;;;;;;;;;;;;;;;;;;5037150;28;19909;-81
2023/02/05 05:12:15;;;;;;;;;;;;;;;;;;5053495;28;19913;-81
2023/02/05 05:14:40;;;;;;;;;;;;;;;;;;5037244;28;20010;-82
2023/02/05 05:17:06;;;;;;;;;;;;;;;;;;5055113;28;19915;-82
2023/02/05 05:19:32;;;;;;;;;;;;;;;;;;5037539;28;19909;-81
2023/02/05 05:21:58;;;;;;;;;;;;;;;;;;5036405;28;19913;-82
2023/02/05 05:24:24;;;;;;;;;;;;;;;;;;5055362;28;19935;-82
2023/02/05 05:26:50;;;;;;;;;;;;;;;;;;5036589;28;19909;-82
2023/02/05 05:29:16;;;;;;;;;;;;;;;;;;5055507;28;20299;-83
2023/02/05 05:31:42;;;;;;;;;;;;;;;;;;5050913;28;20015;-82
2023/02/05 05:34:08;;;;;;;;;;;;;;;;;;5051338;28;20337;-81
2023/02/05 05:36:33;;;;;;;;;;;;;;;;;;5054672;28;20405;-82
2023/02/05 05:43:45;;;;;;;;;;;;;;;;;;5036533;28;19912;-82
2023/02/05 05:44:30;;;;;;;;;;;;;;;;;;5053470;28;19920;-80
2023/02/05 05:46:56;;;;;;;;;;;;;;;;;;5052092;28;19917;-79
2023/02/05 05:49:22;;;;;;;;;;;;;;;;;;5054707;28;20390;-81
2023/02/05 05:51:47;;;;;;;;;;;;;;;;;;5055673;28;19913;-81
2023/02/05 05:54:13;;;;;;;;;;;;;;;;;;5037055;28;20398;-80
2023/02/05 05:56:39;;;;;;;;;;;;;;;;;;5035032;28;20430;-81
2023/02/05 05:59:05;;;;;;;;;;;;;;;;;;5036711;28;19913;-80
2023/02/05 06:01:31;;;;;;;;;;;;;;;;;;5054972;28;19982;-81
2023/02/05 06:03:57;;;;;;;;;;;;;;;;;;5039998;28;19916;-83
2023/02/05 06:06:23;;;;;;;;;;;;;;;;;;5057950;28;20302;-83
2023/02/05 06:08:49;;;;;;;;;;;;;;;;;;5039528;28;19916;-82
2023/02/05 06:11:15;;;;;;;;;;;;;;;;;;5040001;28;19913;-82
2023/02/05 06:13:41;;;;;;;;;;;;;;;;;;5039948;28;19920;-83
2023/02/05 06:16:07;;;;;;;;;;;;;;;;;;5056616;28;19921;-83
2023/02/05 06:18:32;;;;;;;;;;;;;;;;;;5040248;28;19999;-83
2023/02/05 06:20:58;;;;;;;;;;;;;;;;;;5039100;28;19974;-81
2023/02/05 06:23:24;;;;;;;;;;;;;;;;;;5040266;28;20289;-82
2023/02/05 06:25:50;;;;;;;;;;;;;;;;;;5038643;28;19935;-83
2023/02/05 06:28:16;;;;;;;;;;;;;;;;;;5057887;28;19916;-81
2023/02/05 06:30:42;;;;;;;;;;;;;;;;;;5039578;28;19932;-83
2023/02/05 06:33:10;;;;;;;;;;;;;;;;;;5039888;28;20003;-83
2023/02/05 06:35:36;;;;;;;;;;;;;;;;;;5041635;28;19912;-83
2023/02/05 06:38:02;;;;;;;;;;;;;;;;;;5060429;28;20282;-83
2023/02/05 06:40:28;;;;;;;;;;;;;;;;;;5042691;28;19955;-83
2023/02/05 06:42:54;;;;;;;;;;;;;;;;;;5059617;28;19909;-83
2023/02/05 06:45:20;;;;;;;;;;;;;;;;;;5058082;28;19926;-81
2023/02/05 06:47:45;;;;;;;;;;;;;;;;;;5059036;28;20367;-79
2023/02/05 06:50:11;;;;;;;;;;;;;;;;;;5040020;28;19909;-81
2023/02/05 06:52:37;;;;;;;;;;;;;;;;;;5058051;28;19958;-81
2023/02/05 06:55:03;;;;;;;;;;;;;;;;;;5039903;28;20311;-82
2023/02/05 06:57:30;;;;;;;;;;;;;;;;;;5038790;28;19920;-82
2023/02/05 06:59:56;;;;;;;;;;;;;;;;;;5039509;28;20474;-82
2023/02/05 07:02:22;;;;;;;;;;;;;;;;;;5058043;28;19917;-82
2023/02/05 07:04:48;;;;;;;;;;;;;;;;;;5039890;28;19966;-82
2023/02/05 07:07:15;;;;;;;;;;;;;;;;;;5057984;28;20341;-82
2023/02/05 07:09:41;;;;;;;;;;;;;;;;;;5039145;28;19920;-81
2023/02/05 07:12:07;;;;;;;;;;;;;;;;;;5039608;28;20285;-82
2023/02/05 07:14:33;;;;;;;;;;;;;;;;;;5072077;28;19920;-82
2023/02/05 07:16:59;;;;;;;;;;;;;;;;;;5055088;28;19931;-82
2023/02/05 07:19:24;;;;;;;;;;;;;;;;;;5073247;28;19909;-82
2023/02/05 07:21:50;;;;;;;;;;;;;;;;;;5072352;28;19924;-78
2023/02/05 07:24:16;;;;;;;;;;;;;;;;;;5056586;28;19916;-80
2023/02/05 07:26:44;;;;;;;;;;;;;;;;;;5071266;28;19919;-83
2023/02/05 07:29:11;;;;;;;;;;;;;;;;;;5040280;28;20402;-83
2023/02/05 07:31:37;;;;;;;;;;;;;;;;;;5057944;28;19982;-83
2023/02/05 07:34:03;;;;;;;;;;;;;;;;;;5057039;28;19913;-83
2023/02/05 07:36:29;;;;;;;;;;;;;;;;;;5041125;28;19909;-83
2023/02/05 07:38:55;;;;;;;;;;;;;;;;;;5054657;28;20413;-83
2023/02/05 07:41:21;;;;;;;;;;;;;;;;;;5040448;28;20354;-83
2023/02/05 07:43:47;;;;;;;;;;;;;;;;;;5044407;28;19959;-83
2023/02/05 07:46:12;;;;;;;;;;;;;;;;;;5050041;28;19920;-80
2023/02/05 07:48:38;;;;;;;;;;;;;;;;;;5064830;28;19939;-83
2023/02/05 07:51:04;;;;;;;;;;;;;;;;;;5059890;28;19966;-83
2023/02/05 07:53:30;;;;;;;;;;;;;;;;;;5041580;28;19913;-83
2023/02/05 07:55:56;;;;;;;;;;;;;;;;;;5050356;28;19897;-79
2023/02/05 07:58:22;;;;;;;;;;;;;;;;;;5059371;28;19920;-82
2023/02/05 08:00:48;;;;;;;;;;;;;;;;;;5060088;28;19901;-79
2023/02/05 08:03:14;;;;;;;;;;;;;;;;;;5058026;28;19896;-78
2023/02/05 08:05:40;;;;;;;;;;;;;;;;;;5057611;28;19913;-80
2023/02/05 08:08:06;;;;;;;;;;;;;;;;;;5058004;28;20302;-83
2023/02/05 08:10:31;;;;;;;;;;;;;;;;;;5041651;28;19915;-83
2023/02/05 08:12:57;;;;;;;;;;;;;;;;;;5057811;28;19909;-83
2023/02/05 08:15:23;;;;;;;;;;;;;;;;;;5040228;28;19942;-83
2023/02/05 08:17:49;;;;;;;;;;;;;;;;;;5056460;28;19912;-83
2023/02/05 08:20:15;;;;;;;;;;;;;;;;;;5040143;28;19931;-83
2023/02/05 08:22:41;;;;;;;;;;;;;;;;;;5055790;28;20012;-83
2023/02/05 08:25:07;;;;;;;;;;;;;;;;;;5039575;28;19980;-83
2023/02/05 08:27:33;;;;;;;;;;;;;;;;;;5057486;28;19909;-82
2023/02/05 08:29:59;;;;;;;;;;;;;;;;;;5056202;28;19924;-82
2023/02/05 08:32:25;;;;;;;;;;;;;;;;;;5038511;28;19966;-83
2023/02/05 08:34:50;;;;;;;;;;;;;;;;;;5039813;28;19952;-82
2023/02/05 08:37:16;;;;;;;;;;;;;;;;;;5040404;28;19909;-82
2023/02/05 08:39:42;;;;;;;;;;;;;;;;;;5058061;28;19909;-82
2023/02/05 08:42:08;;;;;;;;;;;;;;;;;;5038749;28;20450;-83
2023/02/05 08:44:34;;;;;;;;;;;;;;;;;;5041358;28;20362;-80
2023/02/05 08:47:00;;;;;;;;;;;;;;;;;;5060143;28;19947;-82
2023/02/05 08:49:26;;;;;;;;;;;;;;;;;;5040850;28;20377;-81
2023/02/05 08:51:52;;;;;;;;;;;;;;;;;;5041006;28;19924;-83
2023/02/05 08:54:18;;;;;;;;;;;;;;;;;;5057764;28;19912;-83
2023/02/05 08:56:44;;;;;;;;;;;;;;;;;;5057114;28;19991;-82
2023/02/05 08:59:09;;;;;;;;;;;;;;;;;;5040299;28;19943;-82
2023/02/05 09:01:42;;;;;;;;;;;;;;;;;;5036148;28;19959;-80
2023/02/05 09:04:09;;;;;;;;;;;;;;;;;;5036927;28;20011;-83
2023/02/05 09:06:35;;;;;;;;;;;;;;;;;;5039879;28;20381;-82
2023/02/05 09:09:01;;;;;;;;;;;;;;;;;;5039621;28;19951;-83
2023/02/05 09:11:29;;;;;;;;;;;;;;;;;;5055381;28;19917;-83
2023/02/05 09:13:55;;;;;;;;;;;;;;;;;;5039171;28;19916;-84
2023/02/05 09:16:21;;;;;;;;;;;;;;;;;;5040448;28;19919;-85
2023/02/05 09:18:46;;;;;;;;;;;;;;;;;;5040392;28;19908;-84
2023/02/05 09:21:12;;;;;;;;;;;;;;;;;;5057614;28;19913;-84
2023/02/05 09:23:38;;;;;;;;;;;;;;;;;;5039869;28;19912;-84
2023/02/05 09:26:04;;;;;;;;;;;;;;;;;;5042953;28;20007;-84
2023/02/05 09:28:30;;;;;;;;;;;;;;;;;;5040307;28;19912;-84
2023/02/05 09:30:56;;;;;;;;;;;;;;;;;;5040525;28;19924;-83
2023/02/05 09:33:22;;;;;;;;;;;;;;;;;;5041596;28;19912;-81
2023/02/05 09:35:48;;;;;;;;;;;;;;;;;;5056178;28;19913;-84
2023/02/05 09:38:14;;;;;;;;;;;;;;;;;;5042695;28;19931;-84
2023/02/05 09:40:39;;;;;;;;;;;;;;;;;;5063156;28;19913;-83
2023/02/05 09:43:05;;;;;;;;;;;;;;;;;;5044815;28;20414;-85
2023/02/05 09:45:31;;;;;;;;;;;;;;;;;;5042623;28;19935;-83
2023/02/05 09:47:57;;;;;;;;;;;;;;;;;;5062116;28;19921;-85
2023/02/05 09:50:28;;;;;;;;;;;;;;;;;;5044511;28;19944;-84
2023/02/05 09:52:53;;;;;;;;;;;;;;;;;;5043412;28;19916;-84
2023/02/05 09:55:19;;;;;;;;;;;;;;;;;;5044311;28;20013;-81
2023/02/05 09:57:45;;;;;;;;;;;;;;;;;;5061851;28;19974;-83
2023/02/05 10:00:11;;;;;;;;;;;;;;;;;;5045698;28;19931;-85
2023/02/05 10:02:37;;;;;;;;;;;;;;;;;;5045735;28;19917;-84
2023/02/05 10:05:03;;;;;;;;;;;;;;;;;;5047400;28;19916;-84
2023/02/05 10:07:29;;;;;;;;;;;;;;;;;;5044413;28;19931;-84
2023/02/05 10:09:56;;;;;;;;;;;;;;;;;;5045351;28;19909;-84
2023/02/05 10:12:22;;;;;;;;;;;;;;;;;;5043134;28;19921;-85
2023/02/05 10:14:48;;;;;;;;;;;;;;;;;;5042756;28;19971;-81
2023/02/05 10:17:14;;;;;;;;;;;;;;;;;;5041982;28;19913;-85
2023/02/05 10:19:40;;;;;;;;;;;;;;;;;;5042238;28;19909;-83
2023/02/05 10:22:10;;;;;;;;;;;;;;;;;;5042110;28;19913;-84
2023/02/05 10:24:36;;;;;;;;;;;;;;;;;;5059683;28;19944;-83
2023/02/05 10:27:02;;;;;;;;;;;;;;;;;;5041755;28;20282;-85
2023/02/05 10:29:28;;;;;;;;;;;;;;;;;;5040933;28;19944;-83
2023/02/05 10:31:54;;;;;;;;;;;;;;;;;;5040158;28;19917;-83
2023/02/05 10:34:20;;;;;;;;;;;;;;;;;;5041459;28;19936;-82
2023/02/05 10:36:46;;;;;;;;;;;;;;;;;;5042094;28;19971;-83
2023/02/05 10:39:12;;;;;;;;;;;;;;;;;;5041968;28;19912;-85
2023/02/05 10:41:37;;;;;;;;;;;;;;;;;;5060510;28;19913;-85
2023/02/05 10:44:03;;;;;;;;;;;;;;;;;;5046405;28;19916;-84
2023/02/05 10:46:29;;;;;;;;;;;;;;;;;;5064135;28;19905;-84
2023/02/05 10:48:55;;;;;;;;;;;;;;;;;;5042622;28;19909;-86
2023/02/05 10:57:03;;;;;;;;;;;;;;;;;;5060667;28;20331;-84
2023/02/05 11:02:13;;;;;;;;;;;;;;;;;;5061198;28;19916;-85
2023/02/05 11:04:39;;;;;;;;;;;;;;;;;;5044074;28;19917;-85
2023/02/05 11:07:05;;;;;;;;;;;;;;;;;;5043039;28;19913;-86
2023/02/05 11:09:31;;;;;;;;;;;;;;;;;;5044375;28;19909;-86
2023/02/05 11:11:57;;;;;;;;;;;;;;;;;;5043601;28;20007;-86
2023/02/05 11:14:23;;;;;;;;;;;;;;;;;;5039831;28;19921;-85
2023/02/05 11:16:49;;;;;;;;;;;;;;;;;;5040137;28;20435;-84
2023/02/05 11:19:15;;;;;;;;;;;;;;;;;;5041761;28;19909;-85
2023/02/05 11:21:41;;;;;;;;;;;;;;;;;;5039940;28;19959;-86
2023/02/05 11:24:07;;;;;;;;;;;;;;;;;;5045070;28;19905;-84
2023/02/05 11:26:33;;;;;;;;;;;;;;;;;;5054020;28;19901;-84
2023/02/05 11:34:28;;;;;;;;;;;;;;;;;;5042680;28;20016;-85
2023/02/05 11:36:54;;;;;;;;;;;;;;;;;;5039149;28;19917;-85
2023/02/05 11:39:20;;;;;;;;;;;;;;;;;;5040214;28;19971;-86
2023/02/05 11:41:55;;;;;;;;;;;;;;;;;;5041359;28;20270;-86
2023/02/05 11:44:21;;;;;;;;;;;;;;;;;;5043064;28;19960;-86
2023/02/05 11:46:47;;;;;;;;;;;;;;;;;;5062242;28;19908;-85
2023/02/05 11:49:12;;;;;;;;;;;;;;;;;;5043779;28;19913;-84
2023/02/05 11:51:39;;;;;;;;;;;;;;;;;;5043816;28;19912;-84
2023/02/05 11:54:05;;;;;;;;;;;;;;;;;;5042109;28;19982;-85
2023/02/05 11:56:30;;;;;;;;;;;;;;;;;;5041920;28;20394;-85
2023/02/05 11:58:56;;;;;;;;;;;;;;;;;;5061265;28;19909;-85
2023/02/05 12:01:28;;;;;;;;;;;;;;;;;;5043350;28;20367;-84
2023/02/05 12:03:53;;;;;;;;;;;;;;;;;;5042157;28;19956;-84
2023/02/05 12:06:19;;;;;;;;;;;;;;;;;;5042884;28;20263;-85
2023/02/05 12:08:53;;;;;;;;;;;;;;;;;;5043014;28;19967;-84
2023/02/05 12:11:19;;;;;;;;;;;;;;;;;;5043669;28;19920;-84
2023/02/05 12:16:30;;;;;;;;;;;;;;;;;;3840125;28;21778;-85
2023/02/05 12:19:06;;;;;;;;;;;;;;;;;;5041558;28;19917;-86
2023/02/05 12:21:32;;;;;;;;;;;;;;;;;;5058734;28;19915;-85
2023/02/05 12:23:58;;;;;;;;;;;;;;;;;;5057193;28;19976;-86
2023/02/05 12:26:24;;;;;;;;;;;;;;;;;;5041421;28;20003;-83
2023/02/05 12:28:50;;;;;;;;;;;;;;;;;;5060184;28;19909;-85
2023/02/05 12:31:16;;;;;;;;;;;;;;;;;;5060233;28;19952;-84
2023/02/05 12:33:42;;;;;;;;;;;;;;;;;;5040720;28;19956;-85
2023/02/05 12:36:08;;;;;;;;;;;;;;;;;;5042248;28;19908;-83
2023/02/05 12:38:34;;;;;;;;;;;;;;;;;;5041911;28;19913;-85
2023/02/05 12:41:00;;;;;;;;;;;;;;;;;;5042220;28;19916;-84
2023/02/05 12:43:26;;;;;;;;;;;;;;;;;;5057733;28;19975;-85
2023/02/05 12:45:52;;;;;;;;;;;;;;;;;;5040780;28;19909;-83
2023/02/05 12:51:03;;;;;;;;;;;;;;;;;;5058992;28;19923;-83
2023/02/05 12:53:29;;;;;;;;;;;;;;;;;;5040681;28;19912;-82
2023/02/05 12:55:55;;;;;;;;;;;;;;;;;;5058402;28;19944;-84
2023/02/05 12:58:20;;;;;;;;;;;;;;;;;;5040398;28;19909;-85
2023/02/05 13:00:46;;;;;;;;;;;;;;;;;;5059945;28;19920;-84
2023/02/05 13:03:12;;;;;;;;;;;;;;;;;;5040310;28;19909;-84
2023/02/05 13:05:38;;;;;;;;;;;;;;;;;;5040271;28;19909;-85
2023/02/05 13:08:04;;;;;;;;;;;;;;;;;;5059616;28;19908;-84
2023/02/05 13:10:30;;;;;;;;;;;;;;;;;;5046855;28;19908;-85
2023/02/05 13:12:56;;;;;;;;;;;;;;;;;;5060808;28;20374;-86
2023/02/05 13:15:22;;;;;;;;;;;;;;;;;;5046066;28;19916;-84
2023/02/05 13:17:48;;;;;;;;;;;;;;;;;;5044669;28;20418;-84
2023/02/05 13:20:14;;;;;;;;;;;;;;;;;;5046050;28;19912;-85
2023/02/05 13:30:54;;;;;;;;;;;;;;;;;;5063593;28;20294;-83
2023/02/05 13:33:20;;;;;;;;;;;;;;;;;;5061854;28;19908;-85
2023/02/05 13:35:45;;;;;;;;;;;;;;;;;;5049802;28;19916;-85
2023/02/05 13:38:11;;;;;;;;;;;;;;;;;;5041368;28;20457;-84
2023/02/05 13:43:22;;;;;;;;;;;;;;;;;;5041968;28;19919;-85
2023/02/05 13:45:48;;;;;;;;;;;;;;;;;;5049159;28;19972;-84
2023/02/05 13:48:14;;;;;;;;;;;;;;;;;;5061895;28;19908;-85
2023/02/05 13:50:39;;;;;;;;;;;;;;;;;;5042711;28;19919;-86
2023/02/05 13:53:05;;;;;;;;;;;;;;;;;;5060510;28;20306;-84
2023/02/05 13:55:31;;;;;;;;;;;;;;;;;;5065065;28;19916;-84
2023/02/05 13:57:57;;;;;;;;;;;;;;;;;;5044263;28;19909;-85
2023/02/05 14:00:23;;;;;;;;;;;;;;;;;;5045321;28;20321;-84
2023/02/05 14:02:49;;;;;;;;;;;;;;;;;;5062027;28;20279;-85
2023/02/05 14:05:15;;;;;;;;;;;;;;;;;;5043563;28;20252;-86
2023/02/05 14:07:41;;;;;;;;;;;;;;;;;;5039554;28;19909;-85
2023/02/05 14:10:07;;;;;;;;;;;;;;;;;;5040599;28;19916;-85
2023/02/05 14:12:32;;;;;;;;;;;;;;;;;;5039766;28;19913;-86
2023/02/05 14:14:58;;;;;;;;;;;;;;;;;;5041150;28;19949;-86
2023/02/05 14:17:24;;;;;;;;;;;;;;;;;;5058186;28;19970;-85
2023/02/05 14:19:55;;;;;;;;;;;;;;;;;;5044090;28;19951;-86
2023/02/05 14:22:21;;;;;;;;;;;;;;;;;;5063157;28;19909;-85
2023/02/05 14:24:47;;;;;;;;;;;;;;;;;;5043645;28;19976;-85
2023/02/05 14:27:13;;;;;;;;;;;;;;;;;;5060558;28;20520;-85
2023/02/05 14:29:42;;;;;;;;;;;;;;;;;;5061003;28;19913;-85
2023/02/05 14:32:08;;;;;;;;;;;;;;;;;;5043899;28;19924;-85
2023/02/05 14:37:19;;;;;;;;;;;;;;;;;;5074862;28;19924;-83
2023/02/05 14:39:44;;;;;;;;;;;;;;;;;;5058495;28;19908;-85
2023/02/05 14:42:10;;;;;;;;;;;;;;;;;;5058043;28;19909;-85
2023/02/05 14:44:36;;;;;;;;;;;;;;;;;;5049900;28;19935;-86
2023/02/05 14:47:02;;;;;;;;;;;;;;;;;;5041722;28;19909;-84
2023/02/05 14:49:28;;;;;;;;;;;;;;;;;;5040975;28;19932;-85
2023/02/05 14:51:58;;;;;;;;;;;;;;;;;;5045734;28;19979;-84
2023/02/05 14:54:24;;;;;;;;;;;;;;;;;;5044427;28;19916;-85
2023/02/05 14:56:50;;;;;;;;;;;;;;;;;;5044492;28;19913;-85
2023/02/05 14:59:16;;;;;;;;;;;;;;;;;;5045985;28;19932;-80
2023/02/05 15:01:42;;;;;;;;;;;;;;;;;;5059202;28;19907;-83
2023/02/05 15:04:08;;;;;;;;;;;;;;;;;;5057459;28;19972;-84
2023/02/05 15:06:34;;;;;;;;;;;;;;;;;;5053080;28;19931;-83
2023/02/05 15:09:00;;;;;;;;;;;;;;;;;;5057163;28;19909;-84
2023/02/05 15:11:26;;;;;;;;;;;;;;;;;;5056576;28;19927;-83
2023/02/05 15:13:51;;;;;;;;;;;;;;;;;;5055812;28;20077;-85
2023/02/05 15:16:18;;;;;;;;;;;;;;;;;;5047146;28;19990;-84
2023/02/05 15:18:44;;;;;;;;;;;;;;;;;;5044197;28;19921;-84
2023/02/05 15:21:10;;;;;;;;;;;;;;;;;;5045651;28;20266;-84
2023/02/05 15:23:36;;;;;;;;;;;;;;;;;;5045005;28;19984;-85
2023/02/05 15:26:01;;;;;;;;;;;;;;;;;;5064400;28;20337;-85
2023/02/05 15:28:27;;;;;;;;;;;;;;;;;;5045797;28;19959;-84
2023/02/05 15:30:53;;;;;;;;;;;;;;;;;;5063578;28;19909;-85
2023/02/05 15:33:19;;;;;;;;;;;;;;;;;;5044578;28;19917;-85
2023/02/05 15:35:46;;;;;;;;;;;;;;;;;;5043998;28;20425;-84
2023/02/05 15:38:12;;;;;;;;;;;;;;;;;;5044840;28;19955;-85
2023/02/05 15:40:38;;;;;;;;;;;;;;;;;;5044378;28;19916;-85
2023/02/05 15:43:03;;;;;;;;;;;;;;;;;;5045594;28;19987;-85
2023/02/05 15:45:30;;;;;;;;;;;;;;;;;;5061730;28;19967;-84
2023/02/05 15:47:56;;;;;;;;;;;;;;;;;;5063381;28;19908;-83
2023/02/05 15:53:07;;;;;;;;;;;;;;;;;;5061018;28;19940;-83
2023/02/05 15:55:33;;;;;;;;;;;;;;;;;;5061556;28;20392;-80
2023/02/05 15:57:59;;;;;;;;;;;;;;;;;;5043141;28;19968;-84
2023/02/05 16:00:25;;;;;;;;;;;;;;;;;;5061707;28;19909;-83
2023/02/05 16:02:51;;;;;;;;;;;;;;;;;;5061756;28;19967;-84
2023/02/05 16:05:17;;;;;;;;;;;;;;;;;;5042721;28;20013;-83
2023/02/05 16:07:44;;;;;;;;;;;;;;;;;;5060586;28;19972;-84
2023/02/05 16:10:09;;;;;;;;;;;;;;;;;;5043461;28;20351;-83
2023/02/05 16:12:35;;;;;;;;;;;;;;;;;;5042755;28;19963;-84
2023/02/05 16:15:01;;;;;;;;;;;;;;;;;;5042862;28;19991;-84
2023/02/05 16:17:27;;;;;;;;;;;;;;;;;;5060759;28;19923;-83
2023/02/05 16:19:53;;;;;;;;;;;;;;;;;;5042801;28;20275;-83
2023/02/05 16:22:19;;;;;;;;;;;;;;;;;;5063899;28;19920;-83
2023/02/05 16:24:45;;;;;;;;;;;;;;;;;;5066148;28;19909;-83
2023/02/05 16:27:11;;;;;;;;;;;;;;;;;;5044973;28;19920;-83
2023/02/05 16:29:37;;;;;;;;;;;;;;;;;;5044209;28;19908;-83
2023/02/05 16:32:02;;;;;;;;;;;;;;;;;;5043027;28;19944;-83
2023/02/05 16:34:28;;;;;;;;;;;;;;;;;;5060969;28;19908;-82
2023/02/05 16:36:57;;;;;;;;;;;;;;;;;;5060329;28;19964;-83
2023/02/05 16:39:23;;;;;;;;;;;;;;;;;;5039336;28;19913;-82
2023/02/05 16:41:49;;;;;;;;;;;;;;;;;;5039628;28;19913;-83
2023/02/05 16:46:59;;;;;;;;;;;;;;;;;;5038904;28;20003;-81
2023/02/05 16:49:26;;;;;;;;;;;;;;;;;;5051126;28;20582;-83
2023/02/05 16:51:52;;;;;;;;;;;;;;;;;;5041646;28;19948;-83
2023/02/05 16:54:18;;;;;;;;;;;;;;;;;;5040861;28;19916;-82
2023/02/05 16:56:44;;;;;;;;;;;;;;;;;;5040672;28;20290;-83
2023/02/05 16:59:10;;;;;;;;;;;;;;;;;;5057945;28;19917;-82
2023/02/05 17:01:36;;;;;;;;;;;;;;;;;;5058699;28;19916;-83
2023/02/05 17:04:01;;;;;;;;;;;;;;;;;;5040290;28;19916;-82
2023/02/05 17:06:27;;;;;;;;;;;;;;;;;;5058209;28;19909;-81
2023/02/05 17:08:54;;;;;;;;;;;;;;;;;;5040513;28;19920;-81
2023/02/05 17:11:20;;;;;;;;;;;;;;;;;;5054942;28;19928;-82
2023/02/05 17:13:46;;;;;;;;;;;;;;;;;;5058277;28;19908;-83
2023/02/05 17:16:12;;;;;;;;;;;;;;;;;;5055133;28;20007;-82
2023/02/05 17:18:38;;;;;;;;;;;;;;;;;;5040613;28;19964;-82